sensor_id;sensor_type;location;lat;lon;timestamp;P1;durP1;ratioP1;P2;durP2;ratioP2
15869;SDS011;63464;51.344;-1.634;2022-10-16T08:24:38;16.13;;;12.30;;
15869;SDS011;63464;51.344;-1.634;2022-10-16T08:27:13;14.00;;;12.43;;
15869;SDS011;63464;51.344;-1.634;2022-10-16T08:29:42;21.43;;;13.50;;
15869;SDS011;63464;51.344;-1.634;2022-10-16T08:32:11;14.23;;;11.63;;
15869;SDS011;63464;51.344;-1.634;2022-10-16T08:34:40;17.83;;;12.80;;
15869;SDS011;63464;51.344;-1.634;2022-10-16T08:37:09;13.37;;;11.97;;
15869;SDS011;63464;51.344;-1.634;2022-10-16T08:39:39;14.60;;;12.10;;
15869;SDS011;63464;51.344;-1.634;2022-10-16T08:42:13;14.00;;;12.57;;
15869;SDS011;63464;51.344;-1.634;2022-10-16T08:47:30;18.47;;;12.77;;
15869;SDS011;63464;51.344;-1.634;2022-10-16T08:49:59;20.60;;;13.23;;
15869;SDS011;63464;51.344;-1.634;2022-10-16T08:52:29;14.33;;;12.83;;
15869;SDS011;63464;51.344;-1.634;2022-10-16T08:54:58;15.20;;;12.77;;
15869;SDS011;63464;51.344;-1.634;2022-10-16T08:57:27;15.77;;;12.53;;
15869;SDS011;63464;51.344;-1.634;2022-10-16T08:59:57;14.50;;;13.07;;
15869;SDS011;63464;51.344;-1.634;2022-10-16T09:02:28;18.07;;;13.33;;
15869;SDS011;63464;51.344;-1.634;2022-10-16T09:05:03;14.47;;;13.07;;
15869;SDS011;63464;51.344;-1.634;2022-10-16T09:07:35;15.47;;;12.33;;
15869;SDS011;63464;51.344;-1.634;2022-10-16T09:10:14;15.50;;;13.03;;
15869;SDS011;63464;51.344;-1.634;2022-10-16T09:12:45;14.07;;;12.53;;
15869;SDS011;63464;51.344;-1.634;2022-10-16T09:15:16;15.73;;;12.43;;
15869;SDS011;63464;51.344;-1.634;2022-10-16T09:17:48;18.33;;;13.17;;
15869;SDS011;63464;51.344;-1.634;2022-10-16T09:20:19;15.20;;;13.07;;
15869;SDS011;63464;51.344;-1.634;2022-10-16T09:22:49;15.17;;;13.70;;
15869;SDS011;63464;51.344;-1.634;2022-10-16T09:25:20;17.53;;;13.60;;
15869;SDS011;63464;51.344;-1.634;2022-10-16T09:27:50;16.77;;;12.37;;
15869;SDS011;63464;51.344;-1.634;2022-10-16T09:30:20;15.67;;;13.40;;
15869;SDS011;63464;51.344;-1.634;2022-10-16T09:32:50;18.40;;;13.47;;
15869;SDS011;63464;51.344;-1.634;2022-10-16T09:35:21;15.50;;;13.37;;
15869;SDS011;63464;51.344;-1.634;2022-10-16T09:37:51;14.30;;;12.87;;
15869;SDS011;63464;51.344;-1.634;2022-10-16T09:40:26;16.00;;;13.20;;
15869;SDS011;63464;51.344;-1.634;2022-10-16T09:43:01;13.80;;;12.30;;
15869;SDS011;63464;51.344;-1.634;2022-10-16T09:45:27;15.63;;;13.10;;
15869;SDS011;63464;51.344;-1.634;2022-10-16T09:47:56;13.40;;;12.10;;
15869;SDS011;63464;51.344;-1.634;2022-10-16T09:50:25;14.30;;;12.20;;
15869;SDS011;63464;51.344;-1.634;2022-10-16T09:55:49;15.00;;;12.53;;
15869;SDS011;63464;51.344;-1.634;2022-10-16T09:58:20;13.57;;;12.17;;
15869;SDS011;63464;51.344;-1.634;2022-10-16T10:00:52;13.63;;;12.23;;
15869;SDS011;63464;51.344;-1.634;2022-10-16T10:03:37;15.40;;;12.83;;
15869;SDS011;63464;51.344;-1.634;2022-10-16T10:06:07;13.60;;;12.43;;
15869;SDS011;63464;51.344;-1.634;2022-10-16T10:08:36;13.53;;;12.23;;
15869;SDS011;63464;51.344;-1.634;2022-10-16T10:11:06;13.87;;;12.47;;
15869;SDS011;63464;51.344;-1.634;2022-10-16T10:13:35;13.93;;;12.63;;
15869;SDS011;63464;51.344;-1.634;2022-10-16T10:16:05;15.63;;;12.43;;
15869;SDS011;63464;51.344;-1.634;2022-10-16T10:18:34;15.30;;;12.90;;
15869;SDS011;63464;51.344;-1.634;2022-10-16T10:21:03;14.00;;;12.70;;
15869;SDS011;63464;51.344;-1.634;2022-10-16T10:23:32;14.13;;;12.40;;
15869;SDS011;63464;51.344;-1.634;2022-10-16T10:26:02;16.40;;;12.53;;
15869;SDS011;63464;51.344;-1.634;2022-10-16T10:31:23;15.70;;;12.10;;
15869;SDS011;63464;51.344;-1.634;2022-10-16T10:33:52;13.57;;;12.17;;
15869;SDS011;63464;51.344;-1.634;2022-10-16T10:36:27;13.33;;;12.20;;
15869;SDS011;63464;51.344;-1.634;2022-10-16T10:38:57;13.07;;;12.07;;
15869;SDS011;63464;51.344;-1.634;2022-10-16T10:41:37;13.33;;;12.17;;
15869;SDS011;63464;51.344;-1.634;2022-10-16T10:44:07;14.13;;;12.10;;
15869;SDS011;63464;51.344;-1.634;2022-10-16T10:46:39;13.80;;;12.47;;
15869;SDS011;63464;51.344;-1.634;2022-10-16T10:49:10;13.70;;;12.63;;
15869;SDS011;63464;51.344;-1.634;2022-10-16T10:51:40;15.70;;;11.87;;
15869;SDS011;63464;51.344;-1.634;2022-10-16T10:54:12;14.37;;;13.00;;
15869;SDS011;63464;51.344;-1.634;2022-10-16T10:56:43;14.93;;;11.77;;
15869;SDS011;63464;51.344;-1.634;2022-10-16T11:02:10;13.20;;;12.03;;
15869;SDS011;63464;51.344;-1.634;2022-10-16T11:04:45;12.90;;;11.63;;
15869;SDS011;63464;51.344;-1.634;2022-10-16T11:07:15;13.00;;;12.00;;
15869;SDS011;63464;51.344;-1.634;2022-10-16T11:09:45;12.67;;;11.57;;
15869;SDS011;63464;51.344;-1.634;2022-10-16T11:12:16;12.60;;;11.40;;
15869;SDS011;63464;51.344;-1.634;2022-10-16T11:14:45;11.93;;;10.97;;
15869;SDS011;63464;51.344;-1.634;2022-10-16T11:17:18;12.80;;;11.50;;
15869;SDS011;63464;51.344;-1.634;2022-10-16T11:19:48;12.63;;;11.47;;
15869;SDS011;63464;51.344;-1.634;2022-10-16T11:22:17;12.90;;;11.30;;
15869;SDS011;63464;51.344;-1.634;2022-10-16T11:24:48;12.50;;;11.70;;
15869;SDS011;63464;51.344;-1.634;2022-10-16T11:27:18;13.03;;;11.77;;
15869;SDS011;63464;51.344;-1.634;2022-10-16T11:29:51;13.30;;;11.40;;
15869;SDS011;63464;51.344;-1.634;2022-10-16T11:32:21;12.97;;;11.80;;
15869;SDS011;63464;51.344;-1.634;2022-10-16T11:34:50;14.93;;;12.00;;
15869;SDS011;63464;51.344;-1.634;2022-10-16T11:37:20;13.47;;;11.90;;
15869;SDS011;63464;51.344;-1.634;2022-10-16T11:39:50;13.03;;;11.90;;
15869;SDS011;63464;51.344;-1.634;2022-10-16T11:42:21;13.07;;;11.77;;
15869;SDS011;63464;51.344;-1.634;2022-10-16T11:44:52;14.60;;;12.57;;
15869;SDS011;63464;51.344;-1.634;2022-10-16T11:47:27;13.80;;;12.50;;
15869;SDS011;63464;51.344;-1.634;2022-10-16T11:49:58;14.73;;;13.50;;
15869;SDS011;63464;51.344;-1.634;2022-10-16T11:52:30;15.00;;;13.53;;
15869;SDS011;63464;51.344;-1.634;2022-10-16T11:55:01;14.97;;;13.43;;
15869;SDS011;63464;51.344;-1.634;2022-10-16T11:57:31;15.47;;;14.27;;
15869;SDS011;63464;51.344;-1.634;2022-10-16T12:00:01;15.00;;;13.60;;
15869;SDS011;63464;51.344;-1.634;2022-10-16T12:02:32;15.10;;;13.70;;
15869;SDS011;63464;51.344;-1.634;2022-10-16T12:05:05;15.60;;;14.03;;
15869;SDS011;63464;51.344;-1.634;2022-10-16T12:07:35;15.43;;;13.93;;
15869;SDS011;63464;51.344;-1.634;2022-10-16T12:10:17;14.97;;;13.50;;
15869;SDS011;63464;51.344;-1.634;2022-10-16T12:12:48;15.80;;;13.67;;
15869;SDS011;63464;51.344;-1.634;2022-10-16T12:15:21;15.43;;;13.53;;
15869;SDS011;63464;51.344;-1.634;2022-10-16T12:17:50;15.47;;;13.87;;
15869;SDS011;63464;51.344;-1.634;2022-10-16T12:20:22;15.60;;;14.10;;
15869;SDS011;63464;51.344;-1.634;2022-10-16T12:22:53;19.23;;;14.43;;
15869;SDS011;63464;51.344;-1.634;2022-10-16T12:25:23;15.83;;;14.20;;
15869;SDS011;63464;51.344;-1.634;2022-10-16T12:27:56;15.60;;;13.97;;
15869;SDS011;63464;51.344;-1.634;2022-10-16T12:30:29;16.80;;;14.70;;
15869;SDS011;63464;51.344;-1.634;2022-10-16T12:32:59;15.03;;;13.63;;
15869;SDS011;63464;51.344;-1.634;2022-10-16T12:35:29;16.90;;;13.43;;
15869;SDS011;63464;51.344;-1.634;2022-10-16T12:38:08;15.83;;;13.80;;
15869;SDS011;63464;51.344;-1.634;2022-10-16T12:40:38;13.93;;;12.63;;
15869;SDS011;63464;51.344;-1.634;2022-10-16T12:43:22;14.20;;;12.97;;
15869;SDS011;63464;51.344;-1.634;2022-10-16T12:45:44;14.20;;;12.83;;
15869;SDS011;63464;51.344;-1.634;2022-10-16T12:48:22;14.90;;;13.60;;
15869;SDS011;63464;51.344;-1.634;2022-10-16T12:50:50;14.57;;;13.23;;
15869;SDS011;63464;51.344;-1.634;2022-10-16T12:53:20;14.30;;;12.97;;
15869;SDS011;63464;51.344;-1.634;2022-10-16T12:55:57;14.60;;;13.17;;
15869;SDS011;63464;51.344;-1.634;2022-10-16T12:58:34;13.47;;;12.07;;
15869;SDS011;63464;51.344;-1.634;2022-10-16T13:01:06;14.37;;;12.90;;
15869;SDS011;63464;51.344;-1.634;2022-10-16T13:03:43;14.27;;;13.07;;
15869;SDS011;63464;51.344;-1.634;2022-10-16T13:06:15;15.13;;;12.73;;
15869;SDS011;63464;51.344;-1.634;2022-10-16T13:08:47;14.27;;;13.03;;
15869;SDS011;63464;51.344;-1.634;2022-10-16T13:11:19;14.13;;;12.93;;
15869;SDS011;63464;51.344;-1.634;2022-10-16T13:13:51;13.93;;;12.53;;
15869;SDS011;63464;51.344;-1.634;2022-10-16T13:16:22;14.57;;;13.17;;
15869;SDS011;63464;51.344;-1.634;2022-10-16T13:18:55;14.30;;;12.90;;
15869;SDS011;63464;51.344;-1.634;2022-10-16T13:21:28;13.63;;;12.50;;
15869;SDS011;63464;51.344;-1.634;2022-10-16T13:23:58;14.00;;;12.77;;
15869;SDS011;63464;51.344;-1.634;2022-10-16T13:26:30;14.40;;;13.00;;
15869;SDS011;63464;51.344;-1.634;2022-10-16T13:29:00;14.50;;;13.23;;
15869;SDS011;63464;51.344;-1.634;2022-10-16T13:31:29;14.43;;;13.27;;
15869;SDS011;63464;51.344;-1.634;2022-10-16T13:33:59;14.30;;;13.00;;
15869;SDS011;63464;51.344;-1.634;2022-10-16T13:36:30;14.00;;;12.67;;
15869;SDS011;63464;51.344;-1.634;2022-10-16T13:39:07;14.73;;;13.20;;
15869;SDS011;63464;51.344;-1.634;2022-10-16T13:41:34;14.63;;;13.27;;
15869;SDS011;63464;51.344;-1.634;2022-10-16T13:44:03;15.00;;;13.50;;
15869;SDS011;63464;51.344;-1.634;2022-10-16T13:46:34;16.93;;;13.33;;
15869;SDS011;63464;51.344;-1.634;2022-10-16T13:49:04;15.07;;;13.73;;
15869;SDS011;63464;51.344;-1.634;2022-10-16T13:51:33;14.23;;;12.77;;
15869;SDS011;63464;51.344;-1.634;2022-10-16T13:54:02;14.63;;;13.33;;
15869;SDS011;63464;51.344;-1.634;2022-10-16T13:56:31;15.00;;;13.23;;
15869;SDS011;63464;51.344;-1.634;2022-10-16T13:59:00;14.30;;;12.93;;
15869;SDS011;63464;51.344;-1.634;2022-10-16T14:01:30;14.27;;;12.77;;
15869;SDS011;63464;51.344;-1.634;2022-10-16T14:04:04;13.93;;;12.57;;
15869;SDS011;63464;51.344;-1.634;2022-10-16T14:06:34;15.10;;;13.43;;
15869;SDS011;63464;51.344;-1.634;2022-10-16T14:09:07;14.80;;;13.23;;
15869;SDS011;63464;51.344;-1.634;2022-10-16T14:11:36;14.03;;;12.73;;
15869;SDS011;63464;51.344;-1.634;2022-10-16T14:14:09;15.00;;;13.80;;
15869;SDS011;63464;51.344;-1.634;2022-10-16T14:16:40;14.63;;;13.43;;
15869;SDS011;63464;51.344;-1.634;2022-10-16T14:19:14;15.13;;;13.77;;
15869;SDS011;63464;51.344;-1.634;2022-10-16T14:21:44;14.90;;;13.57;;
15869;SDS011;63464;51.344;-1.634;2022-10-16T14:24:13;15.33;;;14.03;;
15869;SDS011;63464;51.344;-1.634;2022-10-16T14:26:43;15.87;;;14.27;;
15869;SDS011;63464;51.344;-1.634;2022-10-16T14:29:16;15.07;;;13.77;;
15869;SDS011;63464;51.344;-1.634;2022-10-16T14:31:54;14.90;;;13.60;;
15869;SDS011;63464;51.344;-1.634;2022-10-16T14:34:27;14.87;;;13.67;;
15869;SDS011;63464;51.344;-1.634;2022-10-16T14:36:58;14.87;;;13.53;;
15869;SDS011;63464;51.344;-1.634;2022-10-16T14:39:29;14.97;;;13.63;;
15869;SDS011;63464;51.344;-1.634;2022-10-16T14:41:58;14.53;;;13.17;;
15869;SDS011;63464;51.344;-1.634;2022-10-16T14:44:29;15.93;;;14.30;;
15869;SDS011;63464;51.344;-1.634;2022-10-16T14:47:05;15.57;;;14.27;;
15869;SDS011;63464;51.344;-1.634;2022-10-16T14:49:29;15.40;;;14.20;;
15869;SDS011;63464;51.344;-1.634;2022-10-16T14:51:58;15.50;;;13.90;;
15869;SDS011;63464;51.344;-1.634;2022-10-16T14:54:27;14.20;;;12.97;;
15869;SDS011;63464;51.344;-1.634;2022-10-16T14:56:56;16.63;;;15.20;;
15869;SDS011;63464;51.344;-1.634;2022-10-16T14:59:27;17.43;;;15.53;;
15869;SDS011;63464;51.344;-1.634;2022-10-16T15:01:55;16.37;;;14.13;;
15869;SDS011;63464;51.344;-1.634;2022-10-16T15:04:24;14.97;;;13.63;;
15869;SDS011;63464;51.344;-1.634;2022-10-16T15:06:53;16.23;;;13.53;;
15869;SDS011;63464;51.344;-1.634;2022-10-16T15:09:29;15.17;;;13.73;;
15869;SDS011;63464;51.344;-1.634;2022-10-16T15:11:58;17.17;;;15.33;;
15869;SDS011;63464;51.344;-1.634;2022-10-16T15:14:27;16.70;;;15.10;;
15869;SDS011;63464;51.344;-1.634;2022-10-16T15:16:58;15.00;;;13.50;;
15869;SDS011;63464;51.344;-1.634;2022-10-16T15:19:27;14.27;;;13.07;;
15869;SDS011;63464;51.344;-1.634;2022-10-16T15:21:55;15.17;;;13.63;;
15869;SDS011;63464;51.344;-1.634;2022-10-16T15:24:24;14.37;;;12.97;;
15869;SDS011;63464;51.344;-1.634;2022-10-16T15:26:55;14.60;;;13.17;;
15869;SDS011;63464;51.344;-1.634;2022-10-16T15:29:24;14.73;;;13.43;;
15869;SDS011;63464;51.344;-1.634;2022-10-16T15:31:53;16.43;;;14.50;;
15869;SDS011;63464;51.344;-1.634;2022-10-16T15:34:22;15.67;;;13.90;;
15869;SDS011;63464;51.344;-1.634;2022-10-16T15:36:51;15.50;;;14.00;;
15869;SDS011;63464;51.344;-1.634;2022-10-16T15:39:19;15.73;;;14.13;;
15869;SDS011;63464;51.344;-1.634;2022-10-16T15:41:48;15.67;;;14.07;;
15869;SDS011;63464;51.344;-1.634;2022-10-16T15:44:19;17.83;;;13.77;;
15869;SDS011;63464;51.344;-1.634;2022-10-16T15:46:50;18.60;;;14.10;;
15869;SDS011;63464;51.344;-1.634;2022-10-16T15:49:19;15.07;;;13.53;;
15869;SDS011;63464;51.344;-1.634;2022-10-16T15:51:48;15.87;;;14.10;;
15869;SDS011;63464;51.344;-1.634;2022-10-16T15:54:19;16.40;;;13.77;;
15869;SDS011;63464;51.344;-1.634;2022-10-16T15:56:50;15.27;;;13.87;;
15869;SDS011;63464;51.344;-1.634;2022-10-16T15:59:20;16.27;;;14.23;;
15869;SDS011;63464;51.344;-1.634;2022-10-16T16:01:50;15.37;;;13.77;;
15869;SDS011;63464;51.344;-1.634;2022-10-16T16:04:18;19.10;;;14.53;;
15869;SDS011;63464;51.344;-1.634;2022-10-16T16:06:47;14.87;;;13.63;;
15869;SDS011;63464;51.344;-1.634;2022-10-16T16:09:16;14.97;;;13.63;;
15869;SDS011;63464;51.344;-1.634;2022-10-16T16:11:46;15.70;;;14.30;;
15869;SDS011;63464;51.344;-1.634;2022-10-16T16:14:15;16.20;;;14.60;;
15869;SDS011;63464;51.344;-1.634;2022-10-16T16:16:44;22.07;;;19.77;;
15869;SDS011;63464;51.344;-1.634;2022-10-16T16:19:13;18.70;;;16.90;;
15869;SDS011;63464;51.344;-1.634;2022-10-16T16:21:44;17.57;;;15.77;;
15869;SDS011;63464;51.344;-1.634;2022-10-16T16:24:13;16.67;;;15.10;;
15869;SDS011;63464;51.344;-1.634;2022-10-16T16:26:43;14.87;;;13.67;;
15869;SDS011;63464;51.344;-1.634;2022-10-16T16:29:13;15.07;;;13.67;;
15869;SDS011;63464;51.344;-1.634;2022-10-16T16:31:42;17.80;;;16.00;;
15869;SDS011;63464;51.344;-1.634;2022-10-16T16:34:12;15.37;;;14.00;;
15869;SDS011;63464;51.344;-1.634;2022-10-16T16:36:40;15.77;;;14.27;;
15869;SDS011;63464;51.344;-1.634;2022-10-16T16:39:10;29.80;;;26.90;;
15869;SDS011;63464;51.344;-1.634;2022-10-16T16:41:40;26.07;;;20.90;;
15869;SDS011;63464;51.344;-1.634;2022-10-16T16:44:10;17.00;;;15.23;;
15869;SDS011;63464;51.344;-1.634;2022-10-16T16:46:39;14.40;;;13.17;;
15869;SDS011;63464;51.344;-1.634;2022-10-16T16:49:10;15.30;;;13.77;;
15869;SDS011;63464;51.344;-1.634;2022-10-16T16:51:39;15.27;;;13.77;;
15869;SDS011;63464;51.344;-1.634;2022-10-16T16:54:09;14.37;;;12.93;;
15869;SDS011;63464;51.344;-1.634;2022-10-16T16:56:39;14.27;;;12.87;;
15869;SDS011;63464;51.344;-1.634;2022-10-16T16:59:10;13.60;;;12.47;;
15869;SDS011;63464;51.344;-1.634;2022-10-16T17:01:40;13.90;;;12.63;;
15869;SDS011;63464;51.344;-1.634;2022-10-16T17:04:09;15.27;;;13.70;;
15869;SDS011;63464;51.344;-1.634;2022-10-16T17:06:38;16.17;;;14.47;;
15869;SDS011;63464;51.344;-1.634;2022-10-16T17:09:07;13.93;;;12.80;;
15869;SDS011;63464;51.344;-1.634;2022-10-16T17:11:40;13.90;;;12.70;;
15869;SDS011;63464;51.344;-1.634;2022-10-16T17:14:10;14.37;;;13.07;;
15869;SDS011;63464;51.344;-1.634;2022-10-16T17:16:38;13.03;;;12.00;;
15869;SDS011;63464;51.344;-1.634;2022-10-16T17:19:11;12.23;;;11.20;;
15869;SDS011;63464;51.344;-1.634;2022-10-16T17:21:40;12.97;;;11.67;;
15869;SDS011;63464;51.344;-1.634;2022-10-16T17:24:09;12.43;;;11.43;;
15869;SDS011;63464;51.344;-1.634;2022-10-16T17:26:40;11.27;;;10.60;;
15869;SDS011;63464;51.344;-1.634;2022-10-16T17:29:11;10.57;;;9.97;;
15869;SDS011;63464;51.344;-1.634;2022-10-16T17:31:40;10.97;;;10.27;;
15869;SDS011;63464;51.344;-1.634;2022-10-16T17:34:10;11.50;;;10.80;;
15869;SDS011;63464;51.344;-1.634;2022-10-16T17:36:40;11.60;;;10.70;;
15869;SDS011;63464;51.344;-1.634;2022-10-16T17:39:13;12.20;;;11.50;;
15869;SDS011;63464;51.344;-1.634;2022-10-16T17:41:43;11.43;;;10.30;;
15869;SDS011;63464;51.344;-1.634;2022-10-16T17:44:12;9.87;;;9.07;;
15869;SDS011;63464;51.344;-1.634;2022-10-16T17:46:43;10.70;;;10.00;;
15869;SDS011;63464;51.344;-1.634;2022-10-16T17:49:13;11.23;;;10.60;;
15869;SDS011;63464;51.344;-1.634;2022-10-16T17:51:41;11.37;;;10.77;;
15869;SDS011;63464;51.344;-1.634;2022-10-16T17:54:10;12.50;;;11.70;;
15869;SDS011;63464;51.344;-1.634;2022-10-16T17:56:41;12.37;;;11.63;;
15869;SDS011;63464;51.344;-1.634;2022-10-16T17:59:11;12.47;;;11.87;;
15869;SDS011;63464;51.344;-1.634;2022-10-16T18:01:40;14.30;;;13.40;;
15869;SDS011;63464;51.344;-1.634;2022-10-16T18:04:11;15.97;;;14.70;;
15869;SDS011;63464;51.344;-1.634;2022-10-16T18:06:40;13.53;;;12.63;;
15869;SDS011;63464;51.344;-1.634;2022-10-16T18:09:10;14.83;;;13.73;;
15869;SDS011;63464;51.344;-1.634;2022-10-16T18:11:40;13.00;;;12.10;;
15869;SDS011;63464;51.344;-1.634;2022-10-16T18:14:10;16.07;;;14.87;;
15869;SDS011;63464;51.344;-1.634;2022-10-16T18:16:39;14.97;;;13.73;;
15869;SDS011;63464;51.344;-1.634;2022-10-16T18:19:08;14.83;;;13.63;;
15869;SDS011;63464;51.344;-1.634;2022-10-16T18:21:36;16.50;;;15.30;;
15869;SDS011;63464;51.344;-1.634;2022-10-16T18:24:05;15.83;;;14.70;;
15869;SDS011;63464;51.344;-1.634;2022-10-16T18:26:34;20.57;;;19.07;;
15869;SDS011;63464;51.344;-1.634;2022-10-16T18:29:03;14.47;;;13.47;;
15869;SDS011;63464;51.344;-1.634;2022-10-16T18:31:32;17.23;;;15.87;;
15869;SDS011;63464;51.344;-1.634;2022-10-16T18:34:01;14.53;;;13.60;;
15869;SDS011;63464;51.344;-1.634;2022-10-16T18:36:30;15.27;;;14.13;;
15869;SDS011;63464;51.344;-1.634;2022-10-16T18:39:01;16.60;;;15.33;;
15869;SDS011;63464;51.344;-1.634;2022-10-16T18:41:30;16.20;;;14.30;;
15869;SDS011;63464;51.344;-1.634;2022-10-16T18:43:59;17.40;;;16.03;;
15869;SDS011;63464;51.344;-1.634;2022-10-16T18:46:28;16.37;;;14.90;;
15869;SDS011;63464;51.344;-1.634;2022-10-16T18:48:59;17.97;;;16.17;;
15869;SDS011;63464;51.344;-1.634;2022-10-16T18:51:29;17.63;;;15.83;;
15869;SDS011;63464;51.344;-1.634;2022-10-16T18:53:59;16.87;;;15.10;;
15869;SDS011;63464;51.344;-1.634;2022-10-16T18:56:29;13.47;;;11.90;;
15869;SDS011;63464;51.344;-1.634;2022-10-16T18:58:59;17.00;;;15.50;;
15869;SDS011;63464;51.344;-1.634;2022-10-16T19:01:29;15.27;;;14.00;;
15869;SDS011;63464;51.344;-1.634;2022-10-16T19:03:59;12.73;;;11.63;;
15869;SDS011;63464;51.344;-1.634;2022-10-16T19:06:32;12.37;;;11.27;;
15869;SDS011;63464;51.344;-1.634;2022-10-16T19:09:01;11.87;;;10.80;;
15869;SDS011;63464;51.344;-1.634;2022-10-16T19:11:30;12.03;;;11.03;;
15869;SDS011;63464;51.344;-1.634;2022-10-16T19:13:58;12.97;;;11.93;;
15869;SDS011;63464;51.344;-1.634;2022-10-16T19:16:28;11.53;;;10.80;;
15869;SDS011;63464;51.344;-1.634;2022-10-16T19:18:58;24.13;;;21.93;;
15869;SDS011;63464;51.344;-1.634;2022-10-16T19:21:28;11.33;;;10.53;;
15869;SDS011;63464;51.344;-1.634;2022-10-16T19:23:57;20.73;;;19.07;;
15869;SDS011;63464;51.344;-1.634;2022-10-16T19:26:27;13.73;;;12.80;;
15869;SDS011;63464;51.344;-1.634;2022-10-16T19:28:57;14.23;;;13.10;;
15869;SDS011;63464;51.344;-1.634;2022-10-16T19:31:26;10.30;;;9.43;;
15869;SDS011;63464;51.344;-1.634;2022-10-16T19:33:56;11.80;;;10.87;;
15869;SDS011;63464;51.344;-1.634;2022-10-16T19:36:25;12.83;;;11.77;;
15869;SDS011;63464;51.344;-1.634;2022-10-16T19:38:54;11.43;;;10.73;;
15869;SDS011;63464;51.344;-1.634;2022-10-16T19:41:23;9.27;;;8.67;;
15869;SDS011;63464;51.344;-1.634;2022-10-16T19:43:52;19.43;;;17.77;;
15869;SDS011;63464;51.344;-1.634;2022-10-16T19:46:21;11.63;;;10.73;;
15869;SDS011;63464;51.344;-1.634;2022-10-16T19:48:53;26.63;;;23.83;;
15869;SDS011;63464;51.344;-1.634;2022-10-16T19:51:22;18.40;;;16.63;;
15869;SDS011;63464;51.344;-1.634;2022-10-16T19:53:52;15.10;;;14.00;;
15869;SDS011;63464;51.344;-1.634;2022-10-16T19:56:23;13.20;;;12.30;;
15869;SDS011;63464;51.344;-1.634;2022-10-16T19:58:53;13.37;;;12.47;;
15869;SDS011;63464;51.344;-1.634;2022-10-16T20:01:22;12.43;;;11.53;;
15869;SDS011;63464;51.344;-1.634;2022-10-16T20:03:51;14.87;;;13.57;;
15869;SDS011;63464;51.344;-1.634;2022-10-16T20:06:20;13.03;;;12.10;;
15869;SDS011;63464;51.344;-1.634;2022-10-16T20:08:49;13.90;;;12.90;;
15869;SDS011;63464;51.344;-1.634;2022-10-16T20:11:18;12.53;;;11.53;;
15869;SDS011;63464;51.344;-1.634;2022-10-16T20:13:48;13.53;;;12.27;;
15869;SDS011;63464;51.344;-1.634;2022-10-16T20:16:18;17.07;;;15.47;;
15869;SDS011;63464;51.344;-1.634;2022-10-16T20:18:47;10.97;;;9.97;;
15869;SDS011;63464;51.344;-1.634;2022-10-16T20:21:17;11.40;;;10.50;;
15869;SDS011;63464;51.344;-1.634;2022-10-16T20:23:46;15.43;;;13.93;;
15869;SDS011;63464;51.344;-1.634;2022-10-16T20:26:17;14.63;;;13.27;;
15869;SDS011;63464;51.344;-1.634;2022-10-16T20:28:46;11.93;;;10.87;;
15869;SDS011;63464;51.344;-1.634;2022-10-16T20:31:17;11.17;;;9.97;;
15869;SDS011;63464;51.344;-1.634;2022-10-16T20:33:48;12.27;;;10.73;;
15869;SDS011;63464;51.344;-1.634;2022-10-16T20:36:18;9.33;;;6.60;;
15869;SDS011;63464;51.344;-1.634;2022-10-16T20:38:47;6.00;;;5.40;;
15869;SDS011;63464;51.344;-1.634;2022-10-16T20:41:17;7.70;;;5.87;;
15869;SDS011;63464;51.344;-1.634;2022-10-16T20:43:47;8.63;;;6.07;;
15869;SDS011;63464;51.344;-1.634;2022-10-16T20:46:17;6.87;;;5.57;;
15869;SDS011;63464;51.344;-1.634;2022-10-16T20:48:46;4.67;;;3.73;;
15869;SDS011;63464;51.344;-1.634;2022-10-16T20:51:16;5.97;;;3.33;;
15869;SDS011;63464;51.344;-1.634;2022-10-16T20:53:46;9.17;;;5.40;;
15869;SDS011;63464;51.344;-1.634;2022-10-16T20:56:14;4.83;;;3.20;;
15869;SDS011;63464;51.344;-1.634;2022-10-16T20:58:44;5.70;;;3.80;;
15869;SDS011;63464;51.344;-1.634;2022-10-16T21:01:14;5.17;;;3.70;;
15869;SDS011;63464;51.344;-1.634;2022-10-16T21:03:43;5.77;;;3.60;;
15869;SDS011;63464;51.344;-1.634;2022-10-16T21:06:12;6.23;;;4.03;;
15869;SDS011;63464;51.344;-1.634;2022-10-16T21:08:41;7.10;;;3.97;;
15869;SDS011;63464;51.344;-1.634;2022-10-16T21:11:12;5.97;;;4.10;;
15869;SDS011;63464;51.344;-1.634;2022-10-16T21:13:42;8.70;;;7.80;;
15869;SDS011;63464;51.344;-1.634;2022-10-16T21:16:11;7.23;;;4.20;;
15869;SDS011;63464;51.344;-1.634;2022-10-16T21:18:41;8.53;;;5.97;;
15869;SDS011;63464;51.344;-1.634;2022-10-16T21:21:17;11.83;;;8.67;;
15869;SDS011;63464;51.344;-1.634;2022-10-16T21:23:41;6.63;;;5.70;;
15869;SDS011;63464;51.344;-1.634;2022-10-16T21:26:09;8.97;;;6.30;;
15869;SDS011;63464;51.344;-1.634;2022-10-16T21:28:38;5.93;;;4.20;;
15869;SDS011;63464;51.344;-1.634;2022-10-16T21:31:10;7.17;;;5.17;;
15869;SDS011;63464;51.344;-1.634;2022-10-16T21:33:39;8.03;;;4.60;;
15869;SDS011;63464;51.344;-1.634;2022-10-16T21:36:13;10.53;;;4.80;;
15869;SDS011;63464;51.344;-1.634;2022-10-16T21:38:46;6.27;;;4.87;;
15869;SDS011;63464;51.344;-1.634;2022-10-16T21:41:17;7.97;;;4.90;;
15869;SDS011;63464;51.344;-1.634;2022-10-16T21:43:47;10.23;;;4.40;;
15869;SDS011;63464;51.344;-1.634;2022-10-16T21:46:16;9.07;;;5.10;;
15869;SDS011;63464;51.344;-1.634;2022-10-16T21:48:47;6.33;;;5.03;;
15869;SDS011;63464;51.344;-1.634;2022-10-16T21:51:16;9.00;;;5.67;;
15869;SDS011;63464;51.344;-1.634;2022-10-16T21:53:46;7.87;;;5.30;;
15869;SDS011;63464;51.344;-1.634;2022-10-16T21:56:17;8.10;;;5.50;;
15869;SDS011;63464;51.344;-1.634;2022-10-16T21:58:46;9.90;;;6.00;;
15869;SDS011;63464;51.344;-1.634;2022-10-16T22:01:16;8.40;;;6.00;;
15869;SDS011;63464;51.344;-1.634;2022-10-16T22:03:45;8.37;;;6.20;;
15869;SDS011;63464;51.344;-1.634;2022-10-16T22:06:15;8.40;;;5.90;;
15869;SDS011;63464;51.344;-1.634;2022-10-16T22:08:44;9.50;;;6.13;;
15869;SDS011;63464;51.344;-1.634;2022-10-16T22:11:15;7.43;;;5.80;;
15869;SDS011;63464;51.344;-1.634;2022-10-16T22:13:44;9.97;;;6.43;;
15869;SDS011;63464;51.344;-1.634;2022-10-16T22:16:13;11.97;;;6.33;;
15869;SDS011;63464;51.344;-1.634;2022-10-16T22:18:41;9.67;;;6.23;;
15869;SDS011;63464;51.344;-1.634;2022-10-16T22:21:10;13.60;;;6.53;;
15869;SDS011;63464;51.344;-1.634;2022-10-16T22:23:40;8.50;;;5.57;;
15869;SDS011;63464;51.344;-1.634;2022-10-16T22:26:09;8.27;;;6.50;;
15869;SDS011;63464;51.344;-1.634;2022-10-16T22:28:40;11.80;;;6.67;;
15869;SDS011;63464;51.344;-1.634;2022-10-16T22:31:11;6.80;;;5.73;;
15869;SDS011;63464;51.344;-1.634;2022-10-16T22:33:40;9.37;;;6.43;;
15869;SDS011;63464;51.344;-1.634;2022-10-16T22:36:11;9.60;;;6.13;;
15869;SDS011;63464;51.344;-1.634;2022-10-16T22:38:40;6.47;;;5.83;;
15869;SDS011;63464;51.344;-1.634;2022-10-16T22:41:10;7.90;;;6.00;;
15869;SDS011;63464;51.344;-1.634;2022-10-16T22:43:39;9.47;;;6.13;;
15869;SDS011;63464;51.344;-1.634;2022-10-16T22:46:10;7.53;;;5.63;;
15869;SDS011;63464;51.344;-1.634;2022-10-16T22:48:40;9.37;;;6.23;;
15869;SDS011;63464;51.344;-1.634;2022-10-16T22:51:09;10.10;;;5.90;;
15869;SDS011;63464;51.344;-1.634;2022-10-16T22:53:40;10.37;;;5.90;;
15869;SDS011;63464;51.344;-1.634;2022-10-16T22:56:10;7.80;;;6.77;;
15869;SDS011;63464;51.344;-1.634;2022-10-16T22:58:40;7.30;;;6.50;;
15869;SDS011;63464;51.344;-1.634;2022-10-16T23:01:10;11.63;;;6.67;;
15869;SDS011;63464;51.344;-1.634;2022-10-16T23:03:39;7.23;;;6.40;;
15869;SDS011;63464;51.344;-1.634;2022-10-16T23:06:08;7.03;;;6.33;;